Time;durP1;ratioP1;P1;durP2;ratioP2;P2;SDS_P1;SDS_P2;PMS_P1;PMS_P2;Temp;Humidity;BMP_temperature;BMP_pressure;BME280_temperature;BME280_humidity;BME280_pressure;Samples;Min_cycle;Max_cycle;Signal;HPM_P1;HPM_P2
2021/07/11 00:02:06;;;;;;;1.95;0.90;;;17.00;99.90;;;;;;5009415;28;20085;-83
2021/07/11 00:04:32;;;;;;;2.17;1.00;;;16.90;99.90;;;;;;5007498;28;20102;-83
2021/07/11 00:06:58;;;;;;;2.72;0.90;;;16.80;99.90;;;;;;4999583;28;20403;-83
2021/07/11 00:09:23;;;;;;;1.95;0.98;;;16.70;99.90;;;;;;4996867;28;20026;-82
2021/07/11 00:11:49;;;;;;;1.85;0.77;;;16.60;99.90;;;;;;4992234;28;20408;-83
2021/07/11 00:14:14;;;;;;;2.97;1.13;;;16.50;99.90;;;;;;5000455;28;20066;-85
2021/07/11 00:16:40;;;;;;;3.58;0.98;;;16.40;99.90;;;;;;4999313;28;20099;-83
2021/07/11 00:19:06;;;;;;;2.88;1.10;;;16.20;99.90;;;;;;4999976;28;20046;-83
2021/07/11 00:21:31;;;;;;;2.60;0.85;;;16.30;99.90;;;;;;4998435;28;20026;-82
2021/07/11 00:23:57;;;;;;;2.03;1.00;;;16.20;99.90;;;;;;5005643;28;20034;-83
2021/07/11 00:26:22;;;;;;;3.10;1.00;;;16.10;99.90;;;;;;5007451;28;20022;-82
2021/07/11 00:28:48;;;;;;;4.60;0.90;;;16.20;99.90;;;;;;4998670;28;20418;-82
2021/07/11 00:31:14;;;;;;;2.90;1.42;;;16.10;99.90;;;;;;5004931;28;20023;-82
2021/07/11 00:33:39;;;;;;;3.28;0.88;;;16.10;99.90;;;;;;5002092;28;20031;-82
2021/07/11 00:36:05;;;;;;;3.88;1.35;;;16.10;99.90;;;;;;5005878;28;20031;-83
2021/07/11 00:38:31;;;;;;;2.63;1.00;;;16.10;99.90;;;;;;5006179;28;20026;-83
2021/07/11 00:40:59;;;;;;;1.73;0.80;;;16.00;99.90;;;;;;4999973;28;20153;-83
2021/07/11 00:43:25;;;;;;;1.92;0.75;;;16.00;99.90;;;;;;4999457;28;20090;-82
2021/07/11 00:45:51;;;;;;;2.00;0.80;;;15.90;99.90;;;;;;4996551;28;20054;-83
2021/07/11 00:48:19;;;;;;;3.65;0.95;;;16.10;99.90;;;;;;4999068;28;20030;-83
2021/07/11 00:50:46;;;;;;;2.17;0.90;;;16.00;99.90;;;;;;4997881;28;20071;-83
2021/07/11 00:53:14;;;;;;;1.90;0.93;;;15.90;99.90;;;;;;4999079;28;20144;-83
2021/07/11 00:55:40;;;;;;;1.65;0.75;;;15.80;99.90;;;;;;5015715;23;20030;-87
2021/07/11 00:58:06;;;;;;;2.00;0.98;;;16.00;99.90;;;;;;4953823;28;20440;-87
2021/07/11 01:00:33;;;;;;;3.15;1.25;;;16.00;99.90;;;;;;4949036;28;20094;-86
2021/07/11 01:03:10;;;;;;;1.50;0.82;;;16.30;99.90;;;;;;4951144;28;20620;-87
2021/07/11 01:05:36;;;;;;;3.05;1.20;;;16.10;99.90;;;;;;4956398;28;20023;-87
2021/07/11 01:08:15;;;;;;;1.98;0.93;;;16.00;99.90;;;;;;4956237;28;20029;-86
2021/07/11 01:10:50;;;;;;;2.83;0.95;;;16.00;99.90;;;;;;4953661;29;20026;-86
2021/07/11 01:13:20;;;;;;;2.08;1.00;;;15.90;99.90;;;;;;4952667;28;20107;-86
2021/07/11 01:15:50;;;;;;;2.10;1.02;;;15.80;99.90;;;;;;4951931;28;20034;-86
2021/07/11 01:18:18;;;;;;;1.83;0.90;;;15.80;99.90;;;;;;4951825;28;20441;-87
2021/07/11 01:20:46;;;;;;;2.60;1.20;;;15.80;99.90;;;;;;4949733;28;20030;-87
2021/07/11 01:23:46;;;;;;;2.80;1.02;;;15.80;99.90;;;;;;4952157;28;20043;-87
2021/07/11 01:26:14;;;;;;;3.13;1.00;;;15.80;99.90;;;;;;4948802;29;20023;-86
2021/07/11 01:28:41;;;;;;;3.47;1.45;;;15.80;99.90;;;;;;4954169;28;20023;-86
2021/07/11 01:31:08;;;;;;;2.50;0.93;;;15.80;99.90;;;;;;4953730;28;20110;-86
2021/07/11 01:33:37;;;;;;;1.60;0.88;;;15.80;99.90;;;;;;4954749;29;20027;-87
2021/07/11 01:36:04;;;;;;;2.58;1.13;;;15.80;99.90;;;;;;4954975;29;20024;-87
2021/07/11 01:38:32;;;;;;;1.95;0.95;;;15.80;99.90;;;;;;4955201;28;20030;-87
2021/07/11 01:40:58;;;;;;;2.75;1.02;;;15.70;99.90;;;;;;4954922;28;20019;-87
2021/07/11 01:43:24;;;;;;;3.55;0.90;;;15.80;99.90;;;;;;4956504;28;20026;-86
2021/07/11 01:45:52;;;;;;;2.72;1.10;;;15.80;99.90;;;;;;4950642;29;20441;-87
2021/07/11 01:48:18;;;;;;;2.40;0.90;;;15.70;99.90;;;;;;4955238;28;20059;-86
2021/07/11 01:50:50;;;;;;;1.73;0.90;;;15.70;99.90;;;;;;4951937;29;20019;-86
2021/07/11 01:53:17;;;;;;;2.25;0.90;;;15.80;99.90;;;;;;4953670;29;20028;-87
2021/07/11 01:55:43;;;;;;;1.83;0.80;;;15.70;99.90;;;;;;4951970;28;20035;-86
2021/07/11 01:58:09;;;;;;;4.38;0.75;;;15.60;99.90;;;;;;4952429;29;20020;-86
2021/07/11 02:00:34;;;;;;;4.57;0.95;;;15.60;99.90;;;;;;4954327;29;20173;-86
2021/07/11 02:03:00;;;;;;;2.92;1.20;;;15.60;99.90;;;;;;4951381;29;20031;-86
2021/07/11 02:05:26;;;;;;;1.83;0.90;;;15.70;99.90;;;;;;4955276;28;20023;-86
2021/07/11 02:07:52;;;;;;;3.17;1.05;;;15.60;99.90;;;;;;4951449;28;20659;-86
2021/07/11 02:10:18;;;;;;;3.75;1.08;;;15.70;99.90;;;;;;4950195;29;20043;-86
2021/07/11 02:12:49;;;;;;;2.28;1.05;;;15.70;99.90;;;;;;4953115;28;20084;-86
2021/07/11 02:15:15;;;;;;;3.80;1.15;;;15.70;99.90;;;;;;4947923;28;20078;-86
2021/07/11 02:17:51;;;;;;;2.13;1.02;;;15.70;99.90;;;;;;4954448;29;20019;-86
2021/07/11 02:20:19;;;;;;;1.65;0.88;;;15.70;99.90;;;;;;4954430;29;20024;-86
2021/07/11 02:22:47;;;;;;;3.13;0.90;;;15.70;99.90;;;;;;4949047;28;20102;-86
2021/07/11 02:25:20;;;;;;;2.05;1.00;;;15.70;99.90;;;;;;4957859;28;20035;-86
2021/07/11 02:27:49;;;;;;;3.30;1.20;;;15.70;99.90;;;;;;4957692;29;20034;-86
2021/07/11 02:30:18;;;;;;;3.85;0.80;;;15.70;99.90;;;;;;4957738;28;20027;-86
2021/07/11 02:32:48;;;;;;;2.03;0.90;;;15.80;99.90;;;;;;4953324;29;20027;-86
2021/07/11 02:35:15;;;;;;;2.80;0.98;;;15.80;99.90;;;;;;4956668;28;20023;-86
2021/07/11 02:37:49;;;;;;;2.90;1.00;;;15.90;99.90;;;;;;4950173;29;20028;-86
2021/07/11 02:40:16;;;;;;;2.38;0.80;;;15.80;99.90;;;;;;4959188;28;20054;-85
2021/07/11 02:42:43;;;;;;;2.15;1.10;;;15.80;99.90;;;;;;4958094;28;20050;-86
2021/07/11 02:45:09;;;;;;;2.83;1.50;;;15.80;99.90;;;;;;4958336;28;20054;-86
2021/07/11 02:47:39;;;;;;;4.00;1.10;;;15.80;99.90;;;;;;4955321;28;20047;-86
2021/07/11 02:50:07;;;;;;;2.50;0.90;;;15.90;99.90;;;;;;4956917;29;20057;-86
2021/07/11 02:52:35;;;;;;;2.58;0.90;;;15.80;99.90;;;;;;4957776;28;20038;-86
2021/07/11 02:55:15;;;;;;;3.40;0.82;;;15.80;99.90;;;;;;4955518;29;20039;-85
2021/07/11 02:57:46;;;;;;;1.73;0.93;;;15.90;99.90;;;;;;4960267;28;20035;-85
2021/07/11 03:00:12;;;;;;;1.90;0.77;;;15.80;99.90;;;;;;4955317;28;20393;-86
2021/07/11 03:02:40;;;;;;;4.28;1.90;;;15.80;99.90;;;;;;4956800;28;20027;-86
2021/07/11 03:05:08;;;;;;;2.25;1.00;;;15.70;99.90;;;;;;4958037;28;20019;-86
2021/07/11 03:07:34;;;;;;;2.15;0.90;;;15.70;99.90;;;;;;4957568;28;20015;-86
2021/07/11 03:10:00;;;;;;;2.47;0.90;;;15.70;99.90;;;;;;4956642;28;20023;-86
2021/07/11 03:12:26;;;;;;;1.98;0.77;;;15.70;99.90;;;;;;4958025;28;20027;-86
2021/07/11 03:14:53;;;;;;;2.40;1.00;;;15.70;99.90;;;;;;4955867;29;20031;-85
2021/07/11 03:17:22;;;;;;;2.15;0.77;;;15.60;99.90;;;;;;4953979;28;20023;-86
2021/07/11 03:19:52;;;;;;;2.67;1.10;;;15.60;99.90;;;;;;4956392;29;20083;-85
2021/07/11 03:22:22;;;;;;;2.10;0.95;;;15.60;99.90;;;;;;4957411;29;20019;-85
2021/07/11 03:24:49;;;;;;;1.70;0.70;;;15.50;99.90;;;;;;4958168;29;20069;-85
2021/07/11 03:27:17;;;;;;;4.22;1.10;;;15.50;99.90;;;;;;4957051;28;20526;-86
2021/07/11 03:29:53;;;;;;;2.17;1.00;;;15.50;99.90;;;;;;4956889;29;20051;-86
2021/07/11 03:32:20;;;;;;;2.60;0.88;;;15.50;99.90;;;;;;4954209;29;20042;-87
2021/07/11 03:34:48;;;;;;;2.35;1.05;;;15.50;99.90;;;;;;4954444;28;20032;-85
2021/07/11 03:37:15;;;;;;;4.10;1.10;;;15.50;99.90;;;;;;4956230;28;20031;-86
2021/07/11 03:39:44;;;;;;;4.13;1.10;;;15.60;99.90;;;;;;4955351;29;20022;-85
2021/07/11 03:42:11;;;;;;;4.70;1.08;;;15.60;99.90;;;;;;4955803;29;20024;-85
2021/07/11 03:44:40;;;;;;;2.60;1.00;;;15.60;99.90;;;;;;4953704;29;20050;-85
2021/07/11 03:47:10;;;;;;;2.88;1.25;;;15.60;99.90;;;;;;4954833;28;20492;-85
2021/07/11 03:49:39;;;;;;;2.65;1.20;;;15.60;99.90;;;;;;4954018;28;20537;-86
2021/07/11 03:52:06;;;;;;;2.13;0.95;;;15.60;99.90;;;;;;4954102;29;20039;-86
2021/07/11 03:54:38;;;;;;;4.60;1.10;;;15.60;99.90;;;;;;4956296;29;20031;-86
2021/07/11 03:57:06;;;;;;;3.53;1.40;;;15.60;99.90;;;;;;4952668;28;20027;-86
2021/07/11 03:59:32;;;;;;;3.05;1.17;;;15.60;99.90;;;;;;4955395;29;20019;-86
2021/07/11 04:02:01;;;;;;;2.35;1.00;;;15.70;99.90;;;;;;4948258;28;20101;-86
2021/07/11 04:04:28;;;;;;;3.70;1.20;;;15.70;99.90;;;;;;4952680;29;20024;-86
2021/07/11 04:06:54;;;;;;;2.28;1.15;;;15.70;99.90;;;;;;4955095;29;20023;-85
2021/07/11 04:09:22;;;;;;;3.40;1.02;;;15.90;99.90;;;;;;4950688;28;20101;-86
2021/07/11 04:11:48;;;;;;;2.22;0.93;;;15.90;99.90;;;;;;4953426;28;20023;-86
2021/07/11 04:14:16;;;;;;;2.42;1.00;;;15.90;99.90;;;;;;4949345;28;20026;-85
2021/07/11 04:16:45;;;;;;;2.30;0.90;;;15.90;99.90;;;;;;4949699;29;20027;-87
2021/07/11 04:19:11;;;;;;;2.35;1.00;;;16.00;99.90;;;;;;4951774;29;20019;-87
2021/07/11 04:21:39;;;;;;;2.05;1.00;;;15.80;99.90;;;;;;4951160;28;20023;-86
2021/07/11 04:24:05;;;;;;;4.30;1.27;;;15.90;99.90;;;;;;4953279;28;20024;-86
2021/07/11 04:26:36;;;;;;;5.55;1.20;;;15.80;99.90;;;;;;4950849;29;20034;-86
2021/07/11 04:29:03;;;;;;;2.05;1.00;;;15.60;99.90;;;;;;4954255;28;20033;-86
2021/07/11 04:31:29;;;;;;;3.75;1.08;;;15.70;99.90;;;;;;4956353;28;20642;-87
2021/07/11 04:33:55;;;;;;;4.18;1.15;;;15.80;99.90;;;;;;4957452;29;20138;-86
2021/07/11 04:36:21;;;;;;;2.38;1.10;;;16.00;99.90;;;;;;4956473;29;20015;-86
2021/07/11 04:38:46;;;;;;;1.77;0.90;;;15.90;99.90;;;;;;4957848;29;20062;-86
2021/07/11 04:41:12;;;;;;;4.60;1.13;;;15.80;99.90;;;;;;4955003;28;20386;-86
2021/07/11 04:43:39;;;;;;;3.67;1.10;;;15.80;99.90;;;;;;4958009;29;20118;-86
2021/07/11 04:46:04;;;;;;;2.90;0.75;;;15.80;99.90;;;;;;4953367;28;20023;-86
2021/07/11 04:48:30;;;;;;;2.45;1.13;;;15.90;99.90;;;;;;4956726;28;20038;-86
2021/07/11 04:50:56;;;;;;;2.90;1.27;;;15.80;99.90;;;;;;4958943;28;20023;-86
2021/07/11 04:53:22;;;;;;;3.35;1.00;;;15.80;99.90;;;;;;4958272;29;20470;-85
2021/07/11 04:55:49;;;;;;;3.88;1.10;;;16.20;99.90;;;;;;4956676;28;20500;-87
2021/07/11 04:58:15;;;;;;;2.40;0.90;;;16.00;99.90;;;;;;4954729;28;20034;-86
2021/07/11 05:00:42;;;;;;;2.72;0.95;;;16.00;99.90;;;;;;4954583;28;20061;-86
2021/07/11 05:03:07;;;;;;;3.30;1.20;;;15.90;99.90;;;;;;4954714;29;20024;-86
2021/07/11 05:05:35;;;;;;;2.13;1.05;;;16.00;99.90;;;;;;4957592;28;20019;-87
2021/07/11 05:08:04;;;;;;;2.58;1.05;;;16.10;99.90;;;;;;4957746;28;20098;-87
2021/07/11 05:10:30;;;;;;;2.45;1.00;;;16.10;99.90;;;;;;4955693;29;20065;-87
2021/07/11 05:12:56;;;;;;;3.40;1.30;;;16.10;99.90;;;;;;4956225;28;20397;-86
2021/07/11 05:15:21;;;;;;;2.80;1.05;;;16.10;99.90;;;;;;4952188;28;20065;-87
2021/07/11 05:17:47;;;;;;;1.85;0.80;;;16.20;99.90;;;;;;4953792;28;20035;-87
2021/07/11 05:20:13;;;;;;;2.75;1.08;;;16.30;99.90;;;;;;4952524;29;20142;-87
2021/07/11 05:22:39;;;;;;;2.92;0.90;;;16.30;99.90;;;;;;4951239;28;20042;-86
2021/07/11 05:25:06;;;;;;;2.08;1.08;;;16.30;99.90;;;;;;4951349;28;20524;-87
2021/07/11 05:27:32;;;;;;;2.38;1.10;;;16.40;99.90;;;;;;4952949;29;20023;-86
2021/07/11 05:29:57;;;;;;;2.67;1.10;;;16.40;99.90;;;;;;4950294;28;20043;-86
2021/07/11 05:32:23;;;;;;;4.55;1.00;;;16.50;99.90;;;;;;4949416;29;20029;-86
2021/07/11 05:34:49;;;;;;;3.20;1.20;;;16.60;99.90;;;;;;4953200;28;20034;-86
2021/07/11 05:37:15;;;;;;;2.65;1.10;;;16.60;99.90;;;;;;4953412;28;20015;-86
2021/07/11 05:39:40;;;;;;;3.47;1.17;;;16.60;99.90;;;;;;4949331;28;20066;-87
2021/07/11 05:42:06;;;;;;;4.32;1.00;;;16.80;99.90;;;;;;4971067;28;20023;-87
2021/07/11 05:44:31;;;;;;;2.08;0.90;;;16.80;99.90;;;;;;4976360;28;20095;-88
2021/07/11 05:46:57;;;;;;;2.65;1.10;;;17.00;99.90;;;;;;4952131;28;20071;-87
2021/07/11 05:49:22;;;;;;;3.85;1.13;;;17.00;99.90;;;;;;4961605;29;20030;-87
2021/07/11 05:51:48;;;;;;;2.83;1.25;;;17.10;99.90;;;;;;4956351;28;20035;-86
2021/07/11 05:54:14;;;;;;;2.55;1.50;;;17.10;99.90;;;;;;4956110;28;20117;-87
2021/07/11 05:56:39;;;;;;;5.70;1.20;;;17.20;99.90;;;;;;4964241;29;20047;-87
2021/07/11 05:59:05;;;;;;;4.40;1.08;;;17.20;99.90;;;;;;4954605;28;20081;-87
2021/07/11 06:01:30;;;;;;;2.83;1.02;;;17.20;99.90;;;;;;4951240;29;20016;-87
2021/07/11 06:03:56;;;;;;;2.63;0.93;;;17.40;99.90;;;;;;4951984;28;20086;-87
2021/07/11 06:06:22;;;;;;;3.75;0.95;;;17.50;99.90;;;;;;4947082;28;20406;-86
2021/07/11 06:08:48;;;;;;;4.57;1.10;;;17.30;99.90;;;;;;4950647;29;20114;-87
2021/07/11 06:11:14;;;;;;;3.58;1.10;;;17.40;99.90;;;;;;4948388;28;20513;-87
2021/07/11 06:13:39;;;;;;;2.38;1.08;;;17.30;99.90;;;;;;4950687;28;20031;-87
2021/07/11 06:16:05;;;;;;;3.10;1.20;;;17.40;99.90;;;;;;4950222;29;20031;-86
2021/07/11 06:18:30;;;;;;;3.13;1.05;;;17.40;99.90;;;;;;4948440;29;20027;-87
2021/07/11 06:20:56;;;;;;;2.22;1.13;;;17.50;99.90;;;;;;4949906;28;20110;-87
2021/07/11 06:23:21;;;;;;;2.85;0.90;;;17.60;99.90;;;;;;4951783;28;20043;-87
2021/07/11 06:25:47;;;;;;;3.22;0.80;;;17.70;99.90;;;;;;4950758;29;20027;-87
2021/07/11 06:28:13;;;;;;;1.85;0.80;;;17.90;99.90;;;;;;4949468;28;20024;-87
2021/07/11 06:30:38;;;;;;;1.55;0.80;;;17.90;99.90;;;;;;4953684;28;20031;-87
2021/07/11 06:33:04;;;;;;;2.00;0.80;;;18.30;99.90;;;;;;4955204;28;20062;-87
2021/07/11 06:35:30;;;;;;;2.45;0.70;;;18.50;99.90;;;;;;4953776;28;20030;-87
2021/07/11 06:37:55;;;;;;;2.80;1.08;;;18.50;99.90;;;;;;4951333;28;20030;-87
2021/07/11 06:40:24;;;;;;;1.35;0.68;;;18.70;99.90;;;;;;4951812;28;20052;-87
2021/07/11 06:42:51;;;;;;;1.98;0.90;;;18.70;99.90;;;;;;4958945;28;20441;-87
2021/07/11 06:45:17;;;;;;;2.50;0.95;;;18.80;99.90;;;;;;4953443;28;20020;-86
2021/07/11 06:47:43;;;;;;;2.40;0.90;;;19.00;99.90;;;;;;4952119;28;20040;-87
2021/07/11 06:50:11;;;;;;;3.35;1.00;;;19.00;99.90;;;;;;4953917;28;20027;-87
2021/07/11 06:52:38;;;;;;;1.90;0.77;;;19.00;99.90;;;;;;4957909;28;20047;-87
2021/07/11 06:55:11;;;;;;;2.13;0.93;;;19.20;99.90;;;;;;4951187;28;20172;-87
2021/07/11 06:57:40;;;;;;;4.05;1.15;;;19.20;99.90;;;;;;4973663;23;20447;-82
2021/07/11 07:00:08;;;;;;;2.03;0.80;;;19.30;99.90;;;;;;4946772;28;20102;-82
2021/07/11 07:02:33;;;;;;;3.38;1.30;;;19.30;99.90;;;;;;4952549;28;20070;-83
2021/07/11 07:04:59;;;;;;;2.60;0.98;;;19.20;99.90;;;;;;4934885;28;20421;-83
2021/07/11 07:07:24;;;;;;;2.28;0.93;;;19.40;99.90;;;;;;4933506;28;20019;-83
2021/07/11 07:09:50;;;;;;;1.77;0.85;;;19.50;99.90;;;;;;4938505;28;20036;-83
2021/07/11 07:12:16;;;;;;;2.42;0.85;;;19.40;99.90;;;;;;4959731;28;20027;-82
2021/07/11 07:14:41;;;;;;;2.67;1.13;;;19.50;99.90;;;;;;4957453;28;20019;-82
2021/07/11 07:17:07;;;;;;;1.80;0.80;;;19.30;99.90;;;;;;4946335;28;20055;-82
2021/07/11 07:19:33;;;;;;;2.63;0.90;;;19.10;99.90;;;;;;4965058;28;20094;-82
2021/07/11 07:21:58;;;;;;;4.25;1.20;;;19.00;99.90;;;;;;4966249;28;20432;-82
2021/07/11 07:24:24;;;;;;;2.47;0.90;;;18.90;99.90;;;;;;4972342;28;20062;-83
2021/07/11 07:26:49;;;;;;;2.08;0.82;;;19.00;99.90;;;;;;4949749;28;20500;-83
2021/07/11 07:29:15;;;;;;;2.38;0.95;;;19.30;99.90;;;;;;4947036;28;20110;-82
2021/07/11 07:31:42;;;;;;;1.55;0.80;;;19.70;99.90;;;;;;4954254;28;20033;-82
2021/07/11 07:34:08;;;;;;;2.42;0.82;;;19.80;99.90;;;;;;4937409;29;20396;-82
2021/07/11 07:36:34;;;;;;;2.72;0.90;;;20.20;99.90;;;;;;4953338;28;20098;-82
2021/07/11 07:38:59;;;;;;;1.80;0.80;;;20.00;99.90;;;;;;4937658;29;20098;-82
2021/07/11 07:41:25;;;;;;;2.83;0.75;;;19.90;99.90;;;;;;4940938;28;20714;-82
2021/07/11 07:43:51;;;;;;;2.03;0.77;;;20.00;99.90;;;;;;4955655;28;20106;-82
2021/07/11 07:46:17;;;;;;;2.47;0.98;;;20.20;99.90;;;;;;4955280;28;20047;-82
2021/07/11 07:48:42;;;;;;;1.77;0.75;;;20.10;99.90;;;;;;4961725;28;20692;-82
2021/07/11 07:51:09;;;;;;;1.67;0.65;;;20.40;99.90;;;;;;4964215;28;20030;-83
2021/07/11 07:53:34;;;;;;;2.47;1.00;;;20.40;99.90;;;;;;4924356;28;20038;-82
2021/07/11 07:56:00;;;;;;;1.92;0.73;;;20.40;99.90;;;;;;4955826;28;20035;-82
2021/07/11 07:58:26;;;;;;;1.70;0.63;;;20.20;99.90;;;;;;4958107;28;20122;-82
2021/07/11 08:00:54;;;;;;;2.03;0.85;;;20.00;99.90;;;;;;4961472;28;20466;-82
2021/07/11 08:03:21;;;;;;;4.22;0.98;;;19.80;99.90;;;;;;4956464;28;20039;-82
2021/07/11 08:05:46;;;;;;;1.90;0.90;;;19.70;99.90;;;;;;4960498;28;20027;-82
2021/07/11 08:08:12;;;;;;;2.08;0.85;;;19.80;99.90;;;;;;4958817;28;20390;-82
2021/07/11 08:10:38;;;;;;;2.33;0.80;;;19.90;99.90;;;;;;4940653;28;20066;-82
2021/07/11 08:13:04;;;;;;;2.42;0.80;;;20.00;99.90;;;;;;4957013;28;20035;-82
2021/07/11 08:15:30;;;;;;;2.25;0.88;;;20.00;99.90;;;;;;4956742;28;20034;-82
2021/07/11 08:17:56;;;;;;;2.20;0.75;;;20.30;99.90;;;;;;4939857;29;20024;-82
2021/07/11 08:20:22;;;;;;;2.08;0.80;;;20.50;99.90;;;;;;4953701;28;20580;-82
2021/07/11 08:22:49;;;;;;;2.13;0.93;;;20.60;99.90;;;;;;4951375;28;20386;-82
2021/07/11 08:25:15;;;;;;;1.92;0.85;;;20.80;99.90;;;;;;4966837;28;20125;-82
2021/07/11 08:27:41;;;;;;;2.08;0.80;;;20.80;99.90;;;;;;4937175;29;20035;-82
2021/07/11 08:30:10;;;;;;;2.22;0.93;;;21.20;99.90;;;;;;4954105;28;20079;-82
2021/07/11 08:32:36;;;;;;;2.75;0.60;;;21.50;99.90;;;;;;4935806;28;20032;-82
2021/07/11 08:35:03;;;;;;;1.73;0.57;;;21.80;99.90;;;;;;4935534;29;20478;-82
2021/07/11 08:37:29;;;;;;;1.80;0.63;;;21.60;99.90;;;;;;4935793;28;20038;-82
2021/07/11 08:39:55;;;;;;;2.70;0.95;;;21.50;99.90;;;;;;4943221;28;20099;-81
2021/07/11 08:42:23;;;;;;;1.52;0.60;;;21.40;99.90;;;;;;4940753;28;20047;-80
2021/07/11 08:44:51;;;;;;;1.58;0.55;;;21.30;99.90;;;;;;4972447;28;20389;-80
2021/07/11 08:47:17;;;;;;;1.63;0.60;;;21.10;99.90;;;;;;4965309;28;20023;-81
2021/07/11 08:49:43;;;;;;;1.63;0.60;;;20.90;99.90;;;;;;4936948;28;20023;-81
2021/07/11 08:52:08;;;;;;;2.00;0.68;;;20.60;99.90;;;;;;4957369;28;20417;-80
2021/07/11 08:54:35;;;;;;;2.15;0.70;;;20.40;99.90;;;;;;4944585;28;20061;-81
2021/07/11 08:57:05;;;;;;;2.60;0.80;;;20.30;99.90;;;;;;4948980;28;20031;-81
2021/07/11 08:59:32;;;;;;;2.22;0.90;;;20.10;99.90;;;;;;4934840;28;20069;-81
2021/07/11 09:01:59;;;;;;;1.75;0.70;;;20.10;99.90;;;;;;4937797;28;20576;-81
2021/07/11 09:04:26;;;;;;;1.90;0.80;;;20.00;99.90;;;;;;4940080;28;20520;-81
2021/07/11 09:06:57;;;;;;;1.83;0.60;;;20.00;99.90;;;;;;4940214;28;20122;-81
2021/07/11 09:09:31;;;;;;;1.98;0.70;;;20.10;99.90;;;;;;4939725;28;20647;-81
2021/07/11 09:12:05;;;;;;;2.50;0.65;;;20.00;99.90;;;;;;4959794;28;20042;-81
2021/07/11 09:14:36;;;;;;;2.85;0.70;;;20.00;99.90;;;;;;4957808;28;20027;-81
2021/07/11 09:17:04;;;;;;;2.27;0.80;;;20.00;99.90;;;;;;4942522;28;20031;-81
2021/07/11 09:19:32;;;;;;;2.38;0.70;;;20.10;99.90;;;;;;4953131;28;20267;-81
2021/07/11 09:22:08;;;;;;;2.17;0.70;;;20.20;99.90;;;;;;4956487;28;20121;-81
2021/07/11 09:24:35;;;;;;;1.60;0.70;;;20.30;99.90;;;;;;4956460;28;20035;-81
2021/07/11 09:27:07;;;;;;;1.70;0.88;;;20.30;99.90;;;;;;4939585;28;20103;-81
2021/07/11 09:29:34;;;;;;;2.30;0.75;;;20.40;99.90;;;;;;4936314;28;20033;-82
2021/07/11 09:32:00;;;;;;;2.15;0.77;;;20.50;99.90;;;;;;4956242;28;20556;-83
2021/07/11 09:34:29;;;;;;;1.90;0.75;;;20.60;99.90;;;;;;4935601;28;20034;-84
2021/07/11 09:37:06;;;;;;;2.08;0.60;;;20.60;99.90;;;;;;4959284;28;20479;-82
2021/07/11 09:39:32;;;;;;;2.92;0.98;;;20.80;99.90;;;;;;4959833;28;20093;-83
2021/07/11 09:42:01;;;;;;;2.03;0.70;;;20.80;99.90;;;;;;4936445;28;20035;-83
2021/07/11 09:44:38;;;;;;;1.65;0.70;;;20.90;99.90;;;;;;4953666;28;20023;-84
2021/07/11 09:47:17;;;;;;;1.73;0.70;;;21.10;99.90;;;;;;4951730;28;21077;-82
2021/07/11 09:49:44;;;;;;;1.70;0.70;;;21.30;99.90;;;;;;4938568;28;20023;-84
2021/07/11 09:52:09;;;;;;;1.88;0.70;;;21.50;99.90;;;;;;4948479;28;20034;-83
2021/07/11 09:54:35;;;;;;;1.80;0.70;;;21.50;99.90;;;;;;4965733;28;20019;-82
2021/07/11 09:57:08;;;;;;;1.48;0.60;;;21.60;99.90;;;;;;4941185;28;20031;-82
2021/07/11 09:59:34;;;;;;;1.85;0.63;;;21.50;99.90;;;;;;4952291;28;20486;-82
2021/07/11 10:02:00;;;;;;;1.45;0.57;;;21.40;99.90;;;;;;4952047;28;20162;-83
2021/07/11 10:04:25;;;;;;;1.73;0.63;;;21.50;99.90;;;;;;4952250;28;20402;-82
2021/07/11 10:06:51;;;;;;;1.70;0.60;;;21.40;99.90;;;;;;4934978;28;20024;-79
2021/07/11 10:09:17;;;;;;;1.42;0.70;;;21.60;99.90;;;;;;4946997;28;20051;-78
2021/07/11 10:11:42;;;;;;;1.45;0.55;;;22.20;99.90;;;;;;4959294;28;20035;-78
2021/07/11 10:14:08;;;;;;;1.73;0.55;;;22.60;99.90;;;;;;4977219;28;20094;-78
2021/07/11 10:16:36;;;;;;;4.43;0.80;;;22.40;99.90;;;;;;4977863;28;20027;-78
2021/07/11 10:19:03;;;;;;;1.77;0.60;;;22.40;99.90;;;;;;4954284;28;20055;-78
2021/07/11 10:21:34;;;;;;;2.00;0.70;;;22.40;99.90;;;;;;4939925;29;20047;-78
2021/07/11 10:24:00;;;;;;;1.77;0.60;;;22.20;99.90;;;;;;4938693;29;20032;-78
2021/07/11 10:26:38;;;;;;;1.60;0.70;;;22.10;99.90;;;;;;4956967;28;20031;-78
2021/07/11 10:29:12;;;;;;;1.42;0.65;;;21.90;99.90;;;;;;4937183;29;20031;-78
2021/07/11 10:31:43;;;;;;;1.55;0.70;;;21.90;99.90;;;;;;4939869;29;20031;-78
2021/07/11 10:34:09;;;;;;;1.48;0.75;;;21.80;99.90;;;;;;4941063;29;20032;-78
2021/07/11 10:36:39;;;;;;;1.63;0.70;;;21.70;99.90;;;;;;4938550;29;20039;-78
2021/07/11 10:39:12;;;;;;;1.05;0.55;;;21.60;99.90;;;;;;4938443;29;20023;-78
2021/07/11 10:41:50;;;;;;;1.95;0.68;;;21.70;99.90;;;;;;4938264;29;20078;-78
2021/07/11 10:44:22;;;;;;;2.30;0.75;;;21.60;99.90;;;;;;4939762;29;20047;-78
2021/07/11 10:46:53;;;;;;;2.75;0.80;;;21.50;99.90;;;;;;4944276;28;20508;-79
2021/07/11 10:49:20;;;;;;;2.28;0.82;;;21.50;99.90;;;;;;4943696;29;20103;-79
2021/07/11 10:51:50;;;;;;;1.65;0.70;;;21.40;99.90;;;;;;4943106;29;20031;-79
2021/07/11 10:54:29;;;;;;;2.28;0.70;;;21.30;99.90;;;;;;4956276;28;20033;-79
2021/07/11 10:56:58;;;;;;;3.50;0.77;;;21.10;99.90;;;;;;4974570;28;20050;-79
2021/07/11 10:59:30;;;;;;;1.58;0.75;;;21.00;99.90;;;;;;4963155;28;20035;-79
2021/07/11 11:01:57;;;;;;;1.90;0.85;;;20.90;99.90;;;;;;4974882;28;20027;-78
2021/07/11 11:04:23;;;;;;;1.92;0.90;;;20.70;99.90;;;;;;4938143;29;20035;-79
2021/07/11 11:06:49;;;;;;;1.92;0.77;;;20.40;99.90;;;;;;4941386;29;20075;-79
2021/07/11 11:09:43;;;;;;;2.10;0.90;;;20.30;99.90;;;;;;4942217;29;20466;-78
2021/07/11 11:12:22;;;;;;;4.22;0.90;;;20.10;99.90;;;;;;4938132;28;20040;-79
2021/07/11 11:15:00;;;;;;;1.65;0.90;;;19.70;99.90;;;;;;4931536;29;20513;-78
2021/07/11 11:17:36;;;;;;;2.63;0.98;;;19.60;99.90;;;;;;4946215;28;20087;-79
2021/07/11 11:20:08;;;;;;;2.20;0.60;;;19.60;99.90;;;;;;4950634;28;20050;-78
2021/07/11 11:22:35;;;;;;;1.58;0.65;;;19.50;99.90;;;;;;4942810;28;20027;-78
2021/07/11 11:25:03;;;;;;;2.22;0.80;;;19.50;99.90;;;;;;4961308;28;20050;-79
2021/07/11 11:27:40;;;;;;;3.38;0.90;;;19.50;99.90;;;;;;4943276;28;20055;-78
2021/07/11 11:30:11;;;;;;;1.33;0.60;;;19.60;99.90;;;;;;4942193;29;20082;-78
2021/07/11 11:32:37;;;;;;;1.45;0.60;;;19.70;99.90;;;;;;4944158;29;20028;-78
2021/07/11 11:35:05;;;;;;;2.70;1.05;;;19.70;99.90;;;;;;4944774;29;20042;-79
2021/07/11 11:37:32;;;;;;;1.77;0.70;;;19.80;99.90;;;;;;4931689;29;20498;-78
2021/07/11 11:40:04;;;;;;;2.35;0.85;;;19.70;99.90;;;;;;4943881;29;20479;-79
2021/07/11 11:42:29;;;;;;;1.70;0.68;;;19.80;99.90;;;;;;4941386;29;20028;-78
2021/07/11 11:45:08;;;;;;;3.05;0.73;;;19.80;99.90;;;;;;4939294;29;20035;-77
2021/07/11 11:47:35;;;;;;;2.70;1.00;;;19.80;99.90;;;;;;4962332;28;20153;-77
2021/07/11 11:50:16;;;;;;;1.52;0.70;;;19.80;99.90;;;;;;4957711;28;20040;-77
2021/07/11 11:52:42;;;;;;;2.35;0.80;;;19.90;99.90;;;;;;4956062;28;20062;-77
2021/07/11 11:55:09;;;;;;;2.38;0.80;;;19.90;99.90;;;;;;4973592;28;20521;-77
2021/07/11 11:57:38;;;;;;;2.28;0.80;;;20.10;99.90;;;;;;4952160;28;20031;-78
2021/07/11 12:00:07;;;;;;;1.70;0.80;;;20.40;99.90;;;;;;4940318;28;20087;-80
2021/07/11 12:02:32;;;;;;;2.92;1.10;;;20.70;99.90;;;;;;4963420;28;20062;-83
2021/07/11 12:05:09;;;;;;;1.85;0.65;;;21.00;99.90;;;;;;4971391;28;20031;-79
2021/07/11 12:07:36;;;;;;;1.45;0.73;;;21.30;99.90;;;;;;4976253;28;20019;-80
2021/07/11 12:10:02;;;;;;;2.35;0.82;;;21.70;99.90;;;;;;4975400;28;20140;-77
2021/07/11 12:12:27;;;;;;;2.70;0.90;;;21.90;99.90;;;;;;4961406;28;20034;-77
2021/07/11 12:14:53;;;;;;;1.67;0.70;;;21.70;99.90;;;;;;4966395;28;20031;-78
2021/07/11 12:17:18;;;;;;;2.22;0.68;;;22.00;99.90;;;;;;4955140;28;20023;-83
2021/07/11 12:19:53;;;;;;;1.85;0.60;;;22.10;99.90;;;;;;4953309;28;20358;-80
2021/07/11 12:22:19;;;;;;;1.80;0.70;;;22.20;99.90;;;;;;4939452;28;20032;-78
2021/07/11 12:25:05;;;;;;;1.42;0.65;;;22.40;99.90;;;;;;4948544;28;20027;-78
2021/07/11 12:27:33;;;;;;;1.88;0.80;;;22.50;99.90;;;;;;4966374;28;20584;-79
2021/07/11 12:30:16;;;;;;;1.38;0.50;;;22.70;99.90;;;;;;4947447;28;20424;-78
2021/07/11 12:32:51;;;;;;;1.85;0.85;;;22.60;99.90;;;;;;4947094;28;20450;-78
2021/07/11 12:35:18;;;;;;;1.60;0.70;;;22.50;99.90;;;;;;4966591;28;20468;-78
2021/07/11 12:37:58;;;;;;;1.95;0.70;;;22.30;99.90;;;;;;4952955;28;20086;-78
2021/07/11 12:40:26;;;;;;;1.83;0.65;;;22.60;99.90;;;;;;4944652;28;20047;-78
2021/07/11 12:43:03;;;;;;;2.67;0.73;;;22.80;99.90;;;;;;4940992;29;20056;-79
2021/07/11 12:45:28;;;;;;;1.73;0.82;;;23.30;99.90;;;;;;4950663;28;20027;-78
2021/07/11 12:47:54;;;;;;;2.38;0.80;;;23.70;99.90;;;;;;4946960;28;20042;-78
2021/07/11 12:50:37;;;;;;;3.05;0.68;;;23.80;99.90;;;;;;4961126;28;20414;-78
2021/07/11 12:53:04;;;;;;;2.30;0.60;;;23.70;99.90;;;;;;4943299;29;20054;-78